Time;durP1;ratioP1;P1;durP2;ratioP2;P2;SDS_P1;SDS_P2;PMS_P1;PMS_P2;Temp;Humidity;BMP_temperature;BMP_pressure;BME280_temperature;BME280_humidity;BME280_pressure;Samples;Min_cycle;Max_cycle;Signal;HPM_P1;HPM_P2
2022/06/01 00:00:44;;;;;;;2.42;1.80;;;15.10;77.50;;;;;;4954285;28;20047;-66
2022/06/01 00:03:10;;;;;;;2.45;1.77;;;15.00;77.40;;;;;;4954391;28;20039;-66
2022/06/01 00:05:36;;;;;;;2.17;1.75;;;15.00;77.50;;;;;;4953601;28;20066;-67
2022/06/01 00:08:02;;;;;;;2.47;1.67;;;15.10;77.40;;;;;;4956571;28;20058;-67
2022/06/01 00:10:28;;;;;;;1.90;1.75;;;15.10;77.30;;;;;;4954335;28;20731;-66
2022/06/01 00:12:57;;;;;;;1.63;1.52;;;15.00;77.20;;;;;;4954217;28;20109;-67
2022/06/01 00:15:24;;;;;;;3.35;1.80;;;15.00;77.10;;;;;;4951818;28;20039;-64
2022/06/01 00:17:50;;;;;;;1.88;1.77;;;15.10;77.00;;;;;;4955651;28;22079;-67
2022/06/01 00:20:16;;;;;;;1.70;1.60;;;15.00;76.80;;;;;;4956682;28;20093;-66
2022/06/01 00:22:42;;;;;;;1.73;1.63;;;15.00;76.70;;;;;;4953991;28;20033;-67
2022/06/01 00:25:09;;;;;;;3.25;1.90;;;15.00;76.60;;;;;;4954597;28;20042;-67
2022/06/01 00:27:36;;;;;;;3.03;2.28;;;15.00;76.70;;;;;;4954815;28;20043;-67
2022/06/01 00:30:07;;;;;;;3.17;2.30;;;14.90;76.70;;;;;;4955237;28;20027;-67
2022/06/01 00:32:33;;;;;;;2.35;2.03;;;14.80;76.80;;;;;;4952473;28;20070;-65
2022/06/01 00:35:00;;;;;;;4.38;2.05;;;14.80;76.70;;;;;;4957184;28;20070;-67
2022/06/01 00:37:26;;;;;;;2.63;1.95;;;14.80;76.80;;;;;;4956488;28;20082;-67
2022/06/01 00:39:53;;;;;;;2.75;1.77;;;14.70;76.60;;;;;;4957488;28;20049;-67
2022/06/01 00:42:32;;;;;;;2.40;1.67;;;14.70;76.60;;;;;;4954492;28;20454;-67
2022/06/01 00:44:59;;;;;;;1.80;1.70;;;14.70;77.20;;;;;;4957724;28;20533;-67
2022/06/01 00:47:26;;;;;;;2.03;1.83;;;14.70;76.60;;;;;;4956259;28;20542;-67
2022/06/01 00:50:09;;;;;;;2.17;1.98;;;14.60;76.70;;;;;;4956628;28;20039;-67
2022/06/01 00:52:40;;;;;;;3.45;1.95;;;14.60;77.00;;;;;;4954294;28;20043;-67
2022/06/01 00:55:06;;;;;;;2.95;2.25;;;14.60;76.90;;;;;;4961400;28;20057;-67
2022/06/01 00:57:33;;;;;;;2.60;2.30;;;14.60;77.10;;;;;;4957179;28;20062;-67
2022/06/01 01:00:03;;;;;;;2.50;2.30;;;14.60;77.20;;;;;;4957122;28;20035;-67
2022/06/01 01:02:30;;;;;;;5.00;2.63;;;14.60;77.30;;;;;;4960343;28;20115;-67
2022/06/01 01:04:56;;;;;;;3.80;2.47;;;14.60;77.50;;;;;;4956122;28;20042;-67
2022/06/01 01:07:25;;;;;;;3.75;2.25;;;14.60;77.70;;;;;;4955047;28;20071;-66
2022/06/01 01:09:51;;;;;;;2.47;2.25;;;14.50;77.90;;;;;;4956640;28;20495;-67
2022/06/01 01:12:18;;;;;;;2.42;2.22;;;14.50;78.00;;;;;;4953675;28;20038;-65
2022/06/01 01:14:45;;;;;;;2.38;2.10;;;14.50;78.20;;;;;;4960446;28;20379;-67
2022/06/01 01:17:12;;;;;;;2.30;2.10;;;14.50;78.40;;;;;;4960190;28;20035;-67
2022/06/01 01:19:48;;;;;;;3.38;1.90;;;14.40;78.40;;;;;;4960071;28;20406;-67
2022/06/01 01:22:43;;;;;;;3.30;2.15;;;14.40;79.20;;;;;;4961093;28;20067;-66
2022/06/01 01:25:24;;;;;;;2.05;1.95;;;14.40;79.40;;;;;;4961994;28;20557;-67
2022/06/01 01:27:52;;;;;;;2.33;2.05;;;14.40;79.60;;;;;;4961558;28;20077;-67
2022/06/01 01:30:38;;;;;;;3.35;2.08;;;14.40;78.70;;;;;;4959183;28;20058;-66
2022/06/01 01:33:07;;;;;;;2.30;2.10;;;14.40;79.80;;;;;;4958251;28;20038;-67
2022/06/01 01:35:32;;;;;;;2.10;2.00;;;14.40;78.80;;;;;;4958921;28;20074;-67
2022/06/01 01:38:01;;;;;;;3.75;2.30;;;14.40;78.90;;;;;;4960303;28;20179;-67
2022/06/01 01:40:26;;;;;;;5.00;2.38;;;14.40;78.90;;;;;;4958923;28;20047;-67
2022/06/01 01:42:57;;;;;;;2.85;2.33;;;14.40;78.80;;;;;;4975294;28;20042;-67
2022/06/01 01:45:26;;;;;;;2.22;2.00;;;14.40;79.10;;;;;;4958213;28;20047;-66
2022/06/01 01:47:53;;;;;;;2.40;2.20;;;14.40;79.00;;;;;;4959281;28;20036;-66
2022/06/01 01:50:19;;;;;;;2.58;2.10;;;14.40;78.90;;;;;;4963435;28;20042;-66
2022/06/01 01:52:46;;;;;;;2.75;2.03;;;14.40;79.00;;;;;;4956720;28;20097;-65
2022/06/01 01:55:28;;;;;;;2.47;2.28;;;14.40;79.10;;;;;;4958329;28;20030;-66
2022/06/01 01:58:17;;;;;;;2.47;2.17;;;14.40;79.40;;;;;;4960802;28;20035;-67
2022/06/01 02:00:48;;;;;;;2.63;2.30;;;14.40;79.00;;;;;;4944821;28;20047;-66
2022/06/01 02:03:23;;;;;;;2.60;2.38;;;14.40;79.10;;;;;;4962986;28;20466;-67
2022/06/01 02:06:04;;;;;;;2.63;2.30;;;14.40;79.00;;;;;;4962434;28;20049;-66
2022/06/01 02:08:58;;;;;;;3.20;2.60;;;14.30;79.40;;;;;;4959196;28;20027;-66
2022/06/01 02:14:50;;;;;;;3.08;2.38;;;14.30;79.20;;;;;;4959322;28;20054;-67
2022/06/01 02:17:28;;;;;;;3.25;2.47;;;14.30;79.80;;;;;;4959175;28;20035;-67
2022/06/01 02:20:00;;;;;;;3.97;2.47;;;14.30;79.80;;;;;;4958503;28;20031;-66
2022/06/01 02:22:26;;;;;;;2.45;2.13;;;14.30;79.70;;;;;;4959364;28;20062;-67
2022/06/01 02:24:52;;;;;;;2.80;2.60;;;14.30;79.30;;;;;;4959696;28;20042;-67
2022/06/01 02:27:19;;;;;;;2.50;2.30;;;14.30;79.40;;;;;;4960635;28;20031;-67
2022/06/01 02:29:50;;;;;;;4.93;2.60;;;14.30;79.50;;;;;;4959423;28;20046;-67
2022/06/01 02:32:17;;;;;;;3.00;2.65;;;14.30;79.50;;;;;;4958344;28;20050;-66
2022/06/01 02:34:44;;;;;;;2.50;2.30;;;14.20;78.90;;;;;;4956964;28;22409;-67
2022/06/01 02:37:12;;;;;;;2.80;2.60;;;14.20;78.90;;;;;;4958058;28;20035;-67
2022/06/01 02:39:41;;;;;;;3.25;2.70;;;14.20;79.10;;;;;;4957527;28;20042;-64
2022/06/01 02:42:30;;;;;;;3.22;2.92;;;14.10;79.10;;;;;;4957664;28;20077;-65
2022/06/01 02:44:56;;;;;;;3.53;3.22;;;14.10;79.40;;;;;;4958722;28;20043;-67
2022/06/01 02:47:23;;;;;;;3.40;3.10;;;14.10;79.20;;;;;;4958179;28;20045;-65
2022/06/01 02:49:48;;;;;;;3.22;3.03;;;14.00;79.30;;;;;;4957654;28;20038;-64
2022/06/01 02:52:14;;;;;;;3.33;3.00;;;14.00;79.50;;;;;;4953486;28;20553;-66
2022/06/01 02:54:40;;;;;;;3.85;2.75;;;14.00;79.60;;;;;;4962268;28;20690;-67
2022/06/01 02:57:06;;;;;;;2.80;2.60;;;13.90;79.60;;;;;;4961749;28;20039;-67
2022/06/01 02:59:32;;;;;;;3.35;2.90;;;13.90;79.60;;;;;;4959689;28;20055;-67
2022/06/01 03:01:59;;;;;;;3.25;2.90;;;13.90;79.60;;;;;;4954860;28;20050;-66
2022/06/01 03:04:26;;;;;;;4.13;2.70;;;13.80;79.50;;;;;;4957451;28;20513;-65
2022/06/01 03:06:52;;;;;;;4.38;2.60;;;13.80;79.50;;;;;;4956644;28;20028;-66
2022/06/01 03:09:18;;;;;;;2.92;2.63;;;13.80;79.50;;;;;;4956997;28;20660;-67
2022/06/01 03:11:44;;;;;;;4.57;3.10;;;13.70;79.40;;;;;;4966735;28;20032;-66
2022/06/01 03:14:10;;;;;;;5.10;2.42;;;13.70;79.30;;;;;;4958867;28;20589;-67
2022/06/01 03:16:37;;;;;;;2.67;2.47;;;13.70;79.10;;;;;;4955514;28;20039;-67
2022/06/01 03:19:03;;;;;;;3.38;2.50;;;13.70;79.00;;;;;;4956156;28;20035;-67
2022/06/01 03:21:29;;;;;;;3.08;2.78;;;13.60;78.90;;;;;;4954976;28;20530;-66
2022/06/01 03:23:55;;;;;;;2.92;2.50;;;13.60;79.00;;;;;;4957036;28;20060;-67
2022/06/01 03:26:22;;;;;;;3.38;2.55;;;13.60;79.30;;;;;;4954550;28;20049;-66
2022/06/01 03:28:48;;;;;;;3.30;2.70;;;13.60;79.30;;;;;;4956621;28;20199;-67
2022/06/01 03:31:14;;;;;;;2.78;2.50;;;13.60;79.10;;;;;;4957156;28;20039;-67
2022/06/01 03:33:40;;;;;;;2.90;2.70;;;13.60;79.10;;;;;;4955476;28;20059;-67
2022/06/01 03:36:06;;;;;;;3.45;3.13;;;13.50;79.00;;;;;;4956242;28;20043;-66
2022/06/01 03:38:32;;;;;;;3.10;2.72;;;13.50;79.20;;;;;;4956246;28;20026;-67
2022/06/01 03:40:58;;;;;;;3.08;2.80;;;13.50;79.40;;;;;;4956003;28;20037;-67
2022/06/01 03:43:24;;;;;;;2.70;2.50;;;13.50;79.40;;;;;;4956094;28;20035;-67
2022/06/01 03:45:56;;;;;;;2.80;2.60;;;13.40;79.50;;;;;;4954613;28;20897;-66
2022/06/01 03:48:32;;;;;;;2.97;2.78;;;13.40;79.40;;;;;;4960057;28;20035;-66
2022/06/01 03:50:59;;;;;;;3.08;2.78;;;13.40;80.30;;;;;;4955485;28;20035;-66
2022/06/01 03:53:25;;;;;;;4.22;2.83;;;13.40;80.00;;;;;;4951986;28;20415;-66
2022/06/01 03:55:52;;;;;;;3.33;3.00;;;13.50;80.10;;;;;;4954130;28;20129;-67
2022/06/01 03:58:23;;;;;;;4.35;3.22;;;13.50;80.00;;;;;;4954668;28;20665;-67
2022/06/01 04:00:49;;;;;;;4.43;3.20;;;13.50;80.00;;;;;;4955144;28;20527;-66
2022/06/01 04:03:15;;;;;;;3.80;2.92;;;13.50;80.00;;;;;;4957531;28;20050;-67
2022/06/01 04:05:41;;;;;;;3.60;2.70;;;13.40;80.10;;;;;;4958880;28;20038;-67
2022/06/01 04:08:07;;;;;;;3.20;3.00;;;13.40;80.30;;;;;;4956523;28;20046;-67
2022/06/01 04:10:35;;;;;;;4.07;3.00;;;13.40;80.50;;;;;;4955918;28;20054;-65
2022/06/01 04:13:02;;;;;;;5.75;2.90;;;13.40;80.70;;;;;;4958395;28;20046;-67
2022/06/01 04:15:28;;;;;;;3.40;3.10;;;13.40;80.60;;;;;;4957575;28;20089;-66
2022/06/01 04:17:53;;;;;;;3.67;3.38;;;13.40;80.80;;;;;;4957720;28;20043;-67
2022/06/01 04:20:19;;;;;;;3.60;3.30;;;13.40;80.80;;;;;;4959058;28;20034;-67
2022/06/01 04:22:45;;;;;;;3.15;2.95;;;13.50;80.90;;;;;;4955229;28;20035;-65
2022/06/01 04:25:16;;;;;;;3.55;3.25;;;13.50;81.00;;;;;;4958027;28;20027;-67
2022/06/01 04:27:42;;;;;;;3.30;3.03;;;13.50;81.30;;;;;;4956665;28;23943;-67
2022/06/01 04:30:10;;;;;;;4.32;3.92;;;13.50;81.20;;;;;;4956214;28;20541;-66
2022/06/01 04:32:36;;;;;;;4.88;4.30;;;13.50;81.20;;;;;;4955120;28;20224;-68
2022/06/01 04:35:03;;;;;;;4.38;3.78;;;13.50;81.00;;;;;;4959143;28;20085;-67
2022/06/01 04:37:28;;;;;;;4.53;4.13;;;13.60;81.00;;;;;;4971743;28;20051;-67
2022/06/01 04:39:54;;;;;;;6.32;4.70;;;13.60;81.10;;;;;;4958227;28;20035;-66
2022/06/01 04:42:20;;;;;;;6.07;5.32;;;13.60;81.20;;;;;;4959449;28;20039;-67
2022/06/01 04:44:46;;;;;;;5.43;4.88;;;13.60;81.00;;;;;;4958290;28;20103;-66
2022/06/01 04:47:12;;;;;;;5.13;4.45;;;13.60;81.20;;;;;;4959288;28;20086;-67
2022/06/01 04:49:38;;;;;;;11.05;8.38;;;13.60;81.40;;;;;;4963728;28;20090;-67
2022/06/01 04:52:05;;;;;;;25.13;13.90;;;13.70;81.60;;;;;;4963437;28;20045;-66
2022/06/01 04:54:31;;;;;;;11.93;9.20;;;13.70;81.80;;;;;;4961631;28;20031;-66
2022/06/01 04:56:57;;;;;;;9.88;7.88;;;13.70;81.90;;;;;;4962302;28;20041;-67
2022/06/01 04:59:22;;;;;;;8.50;7.32;;;13.70;82.00;;;;;;4961391;28;20591;-67
2022/06/01 05:01:48;;;;;;;9.88;6.60;;;13.80;82.10;;;;;;4962392;28;20035;-65
2022/06/01 05:04:14;;;;;;;5.18;4.60;;;13.80;82.40;;;;;;4961945;28;20406;-66
2022/06/01 05:06:40;;;;;;;4.88;4.47;;;13.80;82.40;;;;;;4963541;28;20418;-66
2022/06/01 05:09:06;;;;;;;4.30;4.00;;;13.90;82.60;;;;;;4959654;28;20042;-67
2022/06/01 05:11:32;;;;;;;4.53;4.13;;;13.90;82.70;;;;;;4960436;28;20053;-65
2022/06/01 05:13:59;;;;;;;4.53;4.18;;;14.00;82.90;;;;;;4962646;28;20039;-66
2022/06/01 05:16:24;;;;;;;4.60;4.10;;;14.10;83.00;;;;;;4962404;28;20573;-66
2022/06/01 05:18:50;;;;;;;4.63;4.22;;;14.10;83.00;;;;;;4961822;28;20035;-67
2022/06/01 05:21:16;;;;;;;4.15;3.85;;;14.20;83.10;;;;;;4962376;28;20043;-67
2022/06/01 05:23:41;;;;;;;6.43;4.28;;;14.30;83.20;;;;;;4962487;28;20039;-67
2022/06/01 05:26:07;;;;;;;4.43;3.65;;;14.30;83.10;;;;;;4960457;28;20043;-67
2022/06/01 05:28:34;;;;;;;4.72;3.85;;;14.40;83.20;;;;;;4961829;28;20031;-67
2022/06/01 05:31:09;;;;;;;4.43;4.03;;;14.50;83.50;;;;;;4961206;28;20069;-67
2022/06/01 05:33:35;;;;;;;4.05;3.75;;;14.60;83.80;;;;;;4976432;28;20028;-66
2022/06/01 05:36:01;;;;;;;4.50;4.05;;;14.70;83.40;;;;;;4961568;28;20562;-67
2022/06/01 05:38:27;;;;;;;4.53;4.03;;;14.80;83.40;;;;;;4960542;28;20114;-66
2022/06/01 05:40:53;;;;;;;4.88;3.92;;;14.80;83.30;;;;;;4962602;28;20122;-68
2022/06/01 05:43:19;;;;;;;7.60;4.05;;;14.90;83.50;;;;;;4968087;28;20102;-67
2022/06/01 05:45:45;;;;;;;4.32;3.92;;;15.00;83.40;;;;;;4962751;28;20490;-66
2022/06/01 05:48:14;;;;;;;4.47;4.07;;;15.10;83.30;;;;;;4961345;28;20100;-67
2022/06/01 05:50:40;;;;;;;6.63;4.35;;;15.20;83.30;;;;;;4961788;28;20039;-67
2022/06/01 05:53:06;;;;;;;4.10;3.38;;;15.20;83.40;;;;;;4959358;28;20038;-67
2022/06/01 05:55:32;;;;;;;4.25;3.80;;;15.30;83.60;;;;;;4960312;28;20035;-68
2022/06/01 05:57:58;;;;;;;6.15;3.92;;;15.40;84.50;;;;;;4962115;28;20085;-67
2022/06/01 06:00:24;;;;;;;6.13;4.30;;;15.50;83.80;;;;;;4963181;28;20058;-66
2022/06/01 06:02:50;;;;;;;4.65;4.20;;;15.60;83.60;;;;;;4962735;28;20063;-67
2022/06/01 06:08:00;;;;;;;4.57;4.18;;;15.70;83.40;;;;;;4962197;28;21108;-66
2022/06/01 06:10:27;;;;;;;6.18;4.30;;;15.80;83.30;;;;;;4958709;28;20101;-67
2022/06/01 06:12:53;;;;;;;4.30;3.90;;;15.80;83.60;;;;;;4960213;28;20039;-67
2022/06/01 06:15:19;;;;;;;4.40;4.10;;;15.90;83.50;;;;;;4961222;28;20691;-66
2022/06/01 06:17:45;;;;;;;4.85;3.95;;;16.00;83.40;;;;;;4960077;28;20027;-66
2022/06/01 06:20:12;;;;;;;4.47;4.07;;;16.10;83.30;;;;;;4960810;28;20038;-68
2022/06/01 06:22:37;;;;;;;4.60;4.20;;;16.10;83.20;;;;;;4959775;28;20098;-67
2022/06/01 06:25:03;;;;;;;4.53;4.15;;;16.20;83.30;;;;;;4960883;28;20118;-67
2022/06/01 06:27:29;;;;;;;4.28;3.97;;;16.20;83.30;;;;;;4961286;28;20520;-68
2022/06/01 06:29:55;;;;;;;4.32;3.92;;;16.30;82.90;;;;;;4959326;28;20057;-67
2022/06/01 06:32:21;;;;;;;4.28;3.88;;;16.30;82.70;;;;;;4960200;28;20039;-67
2022/06/01 06:34:48;;;;;;;4.57;4.28;;;16.40;82.60;;;;;;4959118;28;20042;-67
2022/06/01 06:37:13;;;;;;;4.18;3.88;;;16.50;82.60;;;;;;4959991;28;20039;-67
2022/06/01 06:39:39;;;;;;;4.03;3.72;;;16.50;82.70;;;;;;4959146;28;20038;-67
2022/06/01 06:42:05;;;;;;;4.07;3.45;;;16.60;82.60;;;;;;4956663;28;20049;-67
2022/06/01 06:44:33;;;;;;;3.70;3.03;;;16.60;82.80;;;;;;4959503;28;20122;-67
2022/06/01 06:46:59;;;;;;;2.80;2.60;;;16.70;82.60;;;;;;4958670;28;20031;-67
2022/06/01 06:49:25;;;;;;;2.92;2.55;;;16.80;82.20;;;;;;4957943;28;20130;-66
2022/06/01 06:51:51;;;;;;;2.40;2.20;;;16.90;82.00;;;;;;4960042;28;20126;-66
2022/06/01 06:54:18;;;;;;;2.88;2.40;;;17.00;82.60;;;;;;4959165;28;20143;-67
2022/06/01 06:56:44;;;;;;;2.63;2.42;;;17.10;81.30;;;;;;4959129;28;23559;-67
2022/06/01 06:59:12;;;;;;;2.60;2.22;;;17.10;81.50;;;;;;4957536;28;20522;-68
2022/06/01 07:01:38;;;;;;;2.95;2.50;;;17.20;81.70;;;;;;4957086;28;20035;-68
2022/06/01 07:04:04;;;;;;;4.28;2.70;;;17.30;81.40;;;;;;4958660;28;20399;-68
2022/06/01 07:06:30;;;;;;;3.90;2.33;;;17.40;81.00;;;;;;4958170;28;20528;-67
2022/06/01 07:08:56;;;;;;;2.55;2.30;;;17.40;80.50;;;;;;4957446;28;20507;-67
2022/06/01 07:11:25;;;;;;;4.78;2.58;;;17.50;80.10;;;;;;4958625;28;20053;-67
2022/06/01 07:13:51;;;;;;;2.50;2.30;;;17.60;80.00;;;;;;4956069;28;20062;-68
2022/06/01 07:16:20;;;;;;;2.72;2.40;;;17.70;79.80;;;;;;4958318;28;20460;-67
2022/06/01 07:18:48;;;;;;;2.90;2.40;;;17.70;79.70;;;;;;4957109;28;20446;-64
2022/06/01 07:21:15;;;;;;;3.33;2.10;;;17.80;79.70;;;;;;4963092;28;20395;-66
2022/06/01 07:23:41;;;;;;;4.13;2.25;;;17.90;79.40;;;;;;4956489;28;20027;-66
2022/06/01 07:26:10;;;;;;;2.10;1.90;;;17.90;79.30;;;;;;4957717;28;20074;-65
2022/06/01 07:28:36;;;;;;;2.10;1.90;;;18.00;79.30;;;;;;4959872;28;20037;-65
2022/06/01 07:31:04;;;;;;;2.28;2.08;;;18.10;78.40;;;;;;4958396;28;20027;-66
2022/06/01 07:33:29;;;;;;;2.63;2.30;;;18.20;78.00;;;;;;4958693;28;20451;-65
2022/06/01 07:35:56;;;;;;;2.90;2.00;;;18.20;77.70;;;;;;4958652;28;20070;-65
2022/06/01 07:43:54;;;;;;;2.85;1.90;;;18.40;77.50;;;;;;4956963;28;20046;-67
2022/06/01 07:46:20;;;;;;;2.88;1.75;;;18.50;78.70;;;;;;4959221;28;20446;-67
2022/06/01 07:48:46;;;;;;;1.77;1.55;;;18.60;76.60;;;;;;4959383;28;20538;-65
2022/06/01 07:51:13;;;;;;;2.78;1.65;;;18.70;76.10;;;;;;4957958;28;20039;-65
2022/06/01 07:53:39;;;;;;;3.15;1.70;;;18.80;75.00;;;;;;4958790;28;20041;-65
2022/06/01 07:56:05;;;;;;;3.15;2.00;;;18.80;74.20;;;;;;4957300;28;20043;-65
2022/06/01 07:58:31;;;;;;;1.60;1.50;;;18.90;73.50;;;;;;4954218;28;20045;-68
2022/06/01 08:00:56;;;;;;;3.53;1.70;;;19.00;73.80;;;;;;4955388;28;20035;-67
2022/06/01 08:03:22;;;;;;;2.13;1.83;;;19.00;73.80;;;;;;4955443;28;20435;-68
2022/06/01 08:05:48;;;;;;;2.47;2.00;;;19.10;73.30;;;;;;4959548;28;20027;-65
2022/06/01 08:08:13;;;;;;;2.33;1.60;;;19.20;73.20;;;;;;4958531;28;20507;-66
2022/06/01 08:10:39;;;;;;;1.88;1.77;;;19.30;73.10;;;;;;4954447;28;20043;-65
2022/06/01 08:13:10;;;;;;;2.63;1.80;;;19.40;72.40;;;;;;4955109;28;20063;-66
2022/06/01 08:15:42;;;;;;;2.20;1.67;;;19.50;72.00;;;;;;4957469;28;20073;-66
2022/06/01 08:18:10;;;;;;;2.13;1.60;;;19.60;72.00;;;;;;4958739;28;20125;-66
2022/06/01 08:20:36;;;;;;;2.55;1.63;;;19.70;72.00;;;;;;4954438;28;20038;-65
2022/06/01 08:23:05;;;;;;;2.95;1.60;;;19.80;71.80;;;;;;4956342;28;20031;-65
2022/06/01 08:25:32;;;;;;;1.77;1.38;;;19.90;70.90;;;;;;4958052;28;20140;-66
2022/06/01 08:27:58;;;;;;;1.95;1.50;;;20.00;71.10;;;;;;4955131;28;20082;-65
2022/06/01 08:30:26;;;;;;;2.00;1.55;;;20.00;70.30;;;;;;4957329;28;20027;-66
2022/06/01 08:32:53;;;;;;;2.72;1.60;;;20.10;70.40;;;;;;4955537;28;20062;-66
2022/06/01 08:35:22;;;;;;;2.70;1.50;;;20.20;70.80;;;;;;4953712;28;20038;-66
2022/06/01 08:37:48;;;;;;;2.30;1.55;;;20.30;69.10;;;;;;4957517;28;20035;-66
2022/06/01 08:40:17;;;;;;;3.17;1.50;;;20.40;69.30;;;;;;4956704;28;20517;-66
2022/06/01 08:42:52;;;;;;;2.38;1.40;;;20.50;68.10;;;;;;4955114;28;20121;-66
2022/06/01 08:45:18;;;;;;;3.17;1.70;;;20.50;67.40;;;;;;4957168;28;20051;-66
2022/06/01 08:47:45;;;;;;;7.38;1.50;;;20.60;67.20;;;;;;4956563;28;20034;-66
2022/06/01 08:50:23;;;;;;;1.77;1.58;;;20.70;67.40;;;;;;4957015;28;20511;-67
2022/06/01 08:52:48;;;;;;;2.72;1.50;;;20.70;66.30;;;;;;4954545;28;20133;-66
2022/06/01 08:55:16;;;;;;;1.67;1.25;;;20.70;67.40;;;;;;4957414;28;20523;-67
2022/06/01 08:57:55;;;;;;;1.85;1.30;;;20.80;67.00;;;;;;4957622;28;20529;-66
2022/06/01 09:00:21;;;;;;;2.97;1.40;;;20.80;66.20;;;;;;4956668;28;20027;-66
2022/06/01 09:03:00;;;;;;;1.10;1.00;;;20.90;66.60;;;;;;4955130;28;20036;-64
2022/06/01 09:05:57;;;;;;;2.80;1.30;;;20.90;65.30;;;;;;4955135;28;20039;-66
2022/06/01 09:09:01;;;;;;;1.65;1.30;;;20.90;61.20;;;;;;4955894;28;20118;-66
2022/06/01 09:11:38;;;;;;;1.48;1.10;;;21.00;62.40;;;;;;4917611;28;20047;-66
2022/06/01 09:14:16;;;;;;;1.48;1.20;;;21.00;62.00;;;;;;4957005;28;20066;-66
2022/06/01 09:16:47;;;;;;;2.40;1.17;;;21.10;62.30;;;;;;4956978;28;20055;-66
2022/06/01 09:19:17;;;;;;;1.90;1.40;;;21.10;62.40;;;;;;4957991;28;20034;-66
2022/06/01 09:24:42;;;;;;;4.95;1.08;;;21.10;60.00;;;;;;4956519;28;20039;-66
2022/06/01 09:27:11;;;;;;;1.75;1.15;;;21.10;61.70;;;;;;4955940;28;20035;-66
2022/06/01 09:29:48;;;;;;;1.38;1.25;;;21.10;61.70;;;;;;4957439;28;20043;-66
2022/06/01 09:32:36;;;;;;;2.03;1.40;;;21.10;59.80;;;;;;4956394;28;20042;-66
2022/06/01 09:35:06;;;;;;;2.22;1.42;;;21.10;60.10;;;;;;4957593;28;20061;-66
2022/06/01 09:37:40;;;;;;;2.60;1.52;;;21.10;61.10;;;;;;4957426;28;20070;-66
2022/06/01 09:40:24;;;;;;;1.33;0.98;;;21.10;59.90;;;;;;4959148;28;20639;-66
2022/06/01 09:42:52;;;;;;;1.73;1.60;;;21.10;60.40;;;;;;4959202;28;20055;-66
2022/06/01 09:45:27;;;;;;;1.27;1.17;;;21.20;60.90;;;;;;4960691;28;20035;-66
2022/06/01 09:48:07;;;;;;;1.77;1.30;;;21.30;59.90;;;;;;4961198;28;20035;-65
2022/06/01 09:50:35;;;;;;;2.28;1.45;;;21.30;60.00;;;;;;4959843;28;20030;-66
2022/06/01 09:53:21;;;;;;;2.92;1.52;;;21.30;59.40;;;;;;4958342;28;20059;-66
2022/06/01 09:55:57;;;;;;;2.28;1.20;;;21.40;59.40;;;;;;4960655;28;20027;-66
2022/06/01 10:07:01;;;;;;;1.45;1.13;;;21.70;58.70;;;;;;4959046;28;20037;-64
2022/06/01 10:09:29;;;;;;;2.45;1.40;;;21.80;59.80;;;;;;4959115;28;20047;-66
2022/06/01 10:11:56;;;;;;;1.35;1.00;;;21.90;58.60;;;;;;4956784;28;20050;-66
2022/06/01 10:14:27;;;;;;;3.45;1.17;;;22.00;59.00;;;;;;4959827;28;20153;-66
2022/06/01 10:17:05;;;;;;;1.20;0.98;;;22.10;58.00;;;;;;4958668;28;20089;-66
2022/06/01 10:19:43;;;;;;;1.83;1.00;;;22.20;56.50;;;;;;4957969;28;20031;-65
2022/06/01 10:22:36;;;;;;;1.83;1.08;;;22.30;56.50;;;;;;4961064;28;20172;-66
2022/06/01 10:25:26;;;;;;;1.55;0.90;;;22.30;56.20;;;;;;4958884;28;20131;-65
2022/06/01 10:28:00;;;;;;;2.03;1.00;;;22.50;54.40;;;;;;4958137;28;20037;-66
2022/06/01 10:30:30;;;;;;;1.85;1.10;;;22.50;55.10;;;;;;4957464;28;20042;-66
2022/06/01 10:33:08;;;;;;;1.20;0.90;;;22.60;55.40;;;;;;4959064;28;20035;-66
2022/06/01 10:35:59;;;;;;;3.20;0.90;;;22.70;54.40;;;;;;4971986;28;20520;-66
2022/06/01 10:38:26;;;;;;;1.17;1.02;;;22.70;54.20;;;;;;4958302;28;20050;-66
2022/06/01 10:41:07;;;;;;;1.35;1.20;;;22.80;53.70;;;;;;4956956;28;20038;-66
2022/06/01 10:43:32;;;;;;;1.30;0.90;;;22.80;52.60;;;;;;4958183;28;20038;-66
2022/06/01 10:46:07;;;;;;;3.65;1.23;;;22.80;53.60;;;;;;4958110;28;20082;-66
2022/06/01 10:48:38;;;;;;;2.00;1.20;;;22.80;52.50;;;;;;4957454;28;20031;-66
2022/06/01 10:51:21;;;;;;;1.83;1.10;;;22.80;53.30;;;;;;4958909;28;20043;-66
2022/06/01 10:54:04;;;;;;;2.95;1.23;;;22.90;52.90;;;;;;4958383;28;20027;-66
2022/06/01 10:56:30;;;;;;;3.42;1.30;;;22.90;53.50;;;;;;4958902;28;20082;-66
2022/06/01 10:59:00;;;;;;;1.83;1.30;;;22.90;53.40;;;;;;4958953;28;20506;-66
2022/06/01 11:01:51;;;;;;;1.90;1.13;;;22.90;53.10;;;;;;4957521;28;20403;-66
2022/06/01 11:04:30;;;;;;;2.03;1.25;;;22.90;51.30;;;;;;4962688;28;20744;-66
2022/06/01 11:07:00;;;;;;;3.85;1.33;;;23.00;53.20;;;;;;4957006;28;20507;-66
2022/06/01 11:09:44;;;;;;;2.20;1.30;;;22.90;53.40;;;;;;4957576;28;20047;-66
2022/06/01 11:12:34;;;;;;;1.67;1.25;;;23.00;52.80;;;;;;4956442;28;20034;-67
2022/06/01 11:15:20;;;;;;;2.60;1.52;;;23.00;52.70;;;;;;4956480;28;20078;-67
2022/06/01 11:17:53;;;;;;;1.92;1.63;;;23.00;52.40;;;;;;4959525;28;20031;-65
2022/06/01 11:20:57;;;;;;;2.17;1.58;;;23.00;52.10;;;;;;4958093;28;20070;-66
2022/06/01 11:23:34;;;;;;;2.58;1.40;;;23.00;51.40;;;;;;4959141;28;20032;-66
2022/06/01 11:26:09;;;;;;;2.55;1.13;;;23.10;52.00;;;;;;4957317;28;20035;-67
2022/06/01 11:28:37;;;;;;;1.30;1.20;;;23.10;51.50;;;;;;4959496;28;20047;-67
2022/06/01 11:31:25;;;;;;;2.28;1.10;;;23.10;52.00;;;;;;4964628;28;20731;-67
2022/06/01 11:34:01;;;;;;;1.75;1.30;;;23.10;50.60;;;;;;4957992;28;20035;-66
2022/06/01 11:36:27;;;;;;;2.00;1.10;;;23.10;51.70;;;;;;4955862;28;20042;-66
2022/06/01 11:39:01;;;;;;;1.75;1.17;;;23.10;51.50;;;;;;4953682;28;20932;-66
2022/06/01 11:41:34;;;;;;;2.30;1.05;;;23.10;51.50;;;;;;4955989;28;20541;-67
2022/06/01 11:44:05;;;;;;;1.75;1.00;;;23.10;51.00;;;;;;4956592;28;20035;-67
2022/06/01 11:46:37;;;;;;;4.30;1.27;;;23.10;51.70;;;;;;4956591;28;20492;-67
2022/06/01 11:49:10;;;;;;;2.10;1.02;;;23.10;51.70;;;;;;4957993;28;20040;-66
2022/06/01 11:51:39;;;;;;;1.70;1.17;;;23.10;51.80;;;;;;4955414;28;20122;-66
2022/06/01 11:54:17;;;;;;;1.58;1.02;;;23.10;51.70;;;;;;4957777;28;20086;-66
2022/06/01 11:56:52;;;;;;;1.92;1.60;;;23.10;51.60;;;;;;4957401;28;20545;-67
2022/06/01 11:59:20;;;;;;;3.28;1.50;;;23.00;51.20;;;;;;4955417;28;20043;-67
2022/06/01 12:01:51;;;;;;;1.75;1.13;;;23.00;51.30;;;;;;4955965;28;20042;-65
2022/06/01 12:04:49;;;;;;;1.83;1.20;;;23.00;51.30;;;;;;4955724;28;20051;-67
2022/06/01 12:07:29;;;;;;;2.28;0.98;;;23.00;50.90;;;;;;4954983;28;20027;-66
2022/06/01 12:10:03;;;;;;;1.40;1.30;;;22.90;51.10;;;;;;4957897;28;20559;-66
2022/06/01 12:12:34;;;;;;;2.33;0.98;;;22.90;51.70;;;;;;4953315;28;20039;-66
2022/06/01 12:15:26;;;;;;;2.13;1.00;;;22.90;51.50;;;;;;4958583;28;20047;-67
2022/06/01 12:18:07;;;;;;;1.02;0.93;;;22.80;51.70;;;;;;4959391;28;20035;-66
2022/06/01 12:20:44;;;;;;;1.17;1.00;;;22.80;51.40;;;;;;4960207;28;20039;-66
2022/06/01 12:28:47;;;;;;;2.47;1.10;;;22.70;52.50;;;;;;4959587;28;20066;-67
2022/06/01 12:31:24;;;;;;;2.38;1.30;;;22.70;52.20;;;;;;4959078;28;20027;-67
2022/06/01 12:34:18;;;;;;;2.22;1.20;;;22.60;52.30;;;;;;4958627;28;20059;-66
2022/06/01 12:36:46;;;;;;;2.50;1.27;;;22.60;52.20;;;;;;4958463;28;20039;-66
2022/06/01 12:39:41;;;;;;;1.88;1.13;;;22.60;52.40;;;;;;4958882;28;20045;-66
2022/06/01 12:42:26;;;;;;;1.52;1.27;;;22.50;52.00;;;;;;4959320;28;20037;-66
2022/06/01 12:44:53;;;;;;;2.38;1.10;;;22.50;52.00;;;;;;4958494;28;20466;-66
2022/06/01 12:47:37;;;;;;;2.08;1.13;;;22.50;52.60;;;;;;4959668;28;20150;-66
2022/06/01 12:50:18;;;;;;;2.47;1.15;;;22.40;52.40;;;;;;4959436;28;20419;-67
2022/06/01 12:52:44;;;;;;;2.58;1.38;;;22.40;52.70;;;;;;4962390;28;20043;-66
2022/06/01 12:55:19;;;;;;;4.05;1.30;;;22.40;53.00;;;;;;4957578;28;20503;-67
2022/06/01 12:57:55;;;;;;;2.22;1.40;;;22.30;52.70;;;;;;4959230;28;20039;-64
2022/06/01 13:00:25;;;;;;;4.70;1.48;;;22.30;53.00;;;;;;4957339;28;20034;-67
2022/06/01 13:02:51;;;;;;;3.95;1.50;;;22.20;53.30;;;;;;4958933;28;20035;-66
2022/06/01 13:05:24;;;;;;;6.72;1.65;;;22.20;53.80;;;;;;4958994;28;20031;-67
2022/06/01 13:07:59;;;;;;;9.57;1.80;;;22.20;53.90;;;;;;4958102;28;20065;-66
2022/06/01 13:10:35;;;;;;;7.80;1.92;;;22.20;54.20;;;;;;4960618;28;20053;-66
2022/06/01 13:13:04;;;;;;;5.15;1.65;;;22.20;53.80;;;;;;4959349;28;20086;-66
2022/06/01 13:15:30;;;;;;;9.35;1.70;;;22.20;54.00;;;;;;4961165;28;20039;-66
2022/06/01 13:18:01;;;;;;;3.92;1.48;;;22.20;54.10;;;;;;4960543;28;20043;-66
2022/06/01 13:20:48;;;;;;;2.95;1.50;;;22.20;53.70;;;;;;4957730;28;20046;-66
2022/06/01 13:23:20;;;;;;;3.72;1.20;;;22.20;53.50;;;;;;4959251;28;21171;-67
2022/06/01 13:25:48;;;;;;;2.97;1.30;;;22.20;53.60;;;;;;4964777;28;20038;-64
2022/06/01 13:28:15;;;;;;;7.43;1.20;;;22.20;53.10;;;;;;4960296;28;20175;-67
2022/06/01 13:30:41;;;;;;;2.67;1.10;;;22.20;52.40;;;;;;4960495;28;20454;-67